This is the latest recevied weather packets stored in our database for station/object N4AN. If no packets are shown the sender has not sent any weather packets the latest 10 day(s).
| Time | Temp. | Humidity | Pressure | Rain* | Wind** | Luminosity | Snow |
|---|---|---|---|---|---|---|---|
| 1788012164 | 26.11° C | 85% | 1012.5 hPa | 0 mm | - | - | - |
| 1788012063 | 26.11° C | 85% | 1012.5 hPa | 0 mm | - | - | - |
| 1788011763 | 26.11° C | 84% | 1012.5 hPa | 0 mm | - | - | - |
| 1788011462 | 26.67° C | 82% | 1012.6 hPa | 0 mm | - | - | - |
| 1788011165 | 26.67° C | 82% | 1012.6 hPa | 0 mm | - | - | - |
| 1788010862 | 26.67° C | 82% | 1012.6 hPa | 0 mm | - | - | - |
| 1788010561 | 26.67° C | 82% | 1012.6 hPa | 0 mm | - | - | - |
| 1788010261 | 26.67° C | 82% | 1012.6 hPa | 0 mm | - | - | - |
| 1788010089 | 25.56° C | 85% | 1012.4 hPa | 1.02 mm | - | - | - |
| 1788009961 | 25.56° C | 85% | 1012.4 hPa | 1.02 mm | - | - | - |
| 1788009661 | 25.56° C | 85% | 1012.4 hPa | 1.02 mm | - | - | - |
| 1788009360 | 25.56° C | 84% | 1012.3 hPa | 2.79 mm | - | - | - |
| 1788009060 | 26.11° C | 85% | 1012.9 hPa | 27.43 mm | - | - | - |
| 1788008760 | 26.11° C | 85% | 1012.9 hPa | 27.43 mm | - | - | - |
| 1788008360 | 26.67° C | 81% | 1013 hPa | 100.33 mm | - | - | - |
| 1788008060 | 26.67° C | 81% | 1013 hPa | 100.33 mm | - | - | - |
| 1788007759 | 27.22° C | 81% | 1012.8 hPa | 0 mm | - | - | - |
| 1788007457 | 27.22° C | 79% | 1012.2 hPa | 0 mm | - | - | - |
| 1788007156 | 30° C | 75% | 1012.1 hPa | 0 mm | - | - | - |
| 1788007097 | 28.33° C | 78% | 1011.6 hPa | 0 mm | - | - | - |
| 1788007097 | 27.78° C | 79% | 1011.7 hPa | 0 mm | - | - | - |
| 1788007097 | 30° C | 75% | 1012.1 hPa | 0 mm | - | - | - |
| 1788006557 | 27.78° C | 79% | 1011.7 hPa | 0 mm | - | - | - |
| 1788006257 | 28.33° C | 78% | 1011.6 hPa | 0 mm | - | - | - |
| 1788005955 | 28.33° C | 78% | 1011.8 hPa | 1.02 mm | - | - | - |
* Rain latest hour (hover to see other rain measurements)
** Current wind speed in m/s (hover to see current wind gust speed)